Time;durP1;ratioP1;P1;durP2;ratioP2;P2;SDS_P1;SDS_P2;PMS_P1;PMS_P2;Temp;Humidity;BMP_temperature;BMP_pressure;BME280_temperature;BME280_humidity;BME280_pressure;Samples;Min_cycle;Max_cycle;Signal;HPM_P1;HPM_P2
2021/06/07 06:01:48;;;;;;;6.87;2.72;;;;;;;16.75;69.55;98121.70;1871441;76;22209;-62
2021/06/07 06:04:15;;;;;;;5.75;2.90;;;;;;;16.75;69.47;98118.44;1827736;78;20934;-63
2021/06/07 06:06:42;;;;;;;3.25;2.60;;;;;;;16.84;69.30;98117.83;1827850;78;21150;-61
2021/06/07 06:09:09;;;;;;;4.25;2.87;;;;;;;16.94;68.71;98124.77;1828089;78;21359;-62
2021/06/07 06:11:37;;;;;;;4.05;2.85;;;;;;;17.05;68.27;98125.99;1827709;78;20875;-65
2021/06/07 06:14:04;;;;;;;4.47;3.00;;;;;;;17.18;68.12;98122.23;1827827;78;20963;-63
2021/06/07 06:16:31;;;;;;;4.72;2.80;;;;;;;17.31;67.22;98122.52;1823657;77;21463;-64
2021/06/07 06:18:57;;;;;;;4.55;2.98;;;;;;;17.46;67.31;98120.57;1805116;77;21202;-66
2021/06/07 06:21:27;;;;;;;4.08;2.95;;;;;;;17.60;67.41;98122.47;1794057;79;21010;-63
2021/06/07 06:23:55;;;;;;;4.70;2.72;;;;;;;17.73;66.74;98122.73;1793784;79;20967;-60
2021/06/07 06:26:22;;;;;;;3.98;2.70;;;;;;;17.78;66.06;98117.11;1758422;81;21038;-61
2021/06/07 06:28:49;;;;;;;6.60;2.77;;;;;;;17.82;65.94;98120.52;1759143;81;21041;-63
2021/06/07 06:31:16;;;;;;;5.78;2.85;;;;;;;17.91;65.85;98119.86;1758748;81;21121;-63
2021/06/07 06:33:43;;;;;;;5.08;2.92;;;;;;;18.02;65.66;98123.72;1759007;81;21018;-61
2021/06/07 06:36:10;;;;;;;5.10;2.52;;;;;;;18.14;65.68;98118.34;1759757;81;20962;-63
2021/06/07 06:38:38;;;;;;;4.55;2.75;;;;;;;18.25;65.22;98125.70;1767207;78;20993;-65
2021/06/07 06:41:04;;;;;;;3.58;2.47;;;;;;;18.35;64.77;98118.48;1789006;80;21380;-65
2021/06/07 06:43:32;;;;;;;3.98;2.75;;;;;;;18.47;63.79;98119.09;1789601;80;21089;-63
2021/06/07 06:46:00;;;;;;;6.33;2.60;;;;;;;18.58;63.08;98116.18;1768594;78;21249;-64
2021/06/07 06:48:28;;;;;;;3.50;2.50;;;;;;;18.68;62.51;98114.35;1759222;81;21462;-60
2021/06/07 06:50:55;;;;;;;4.55;2.50;;;;;;;18.77;62.22;98119.09;1759658;81;21437;-63
2021/06/07 06:53:23;;;;;;;4.47;2.52;;;;;;;18.81;61.77;98124.08;1759557;81;21041;-63
2021/06/07 06:55:55;;;;;;;8.23;2.98;;;;;;;18.84;62.15;98119.90;1759774;81;21716;-64
2021/06/07 06:58:22;;;;;;;4.25;2.80;;;;;;;18.88;62.46;98126.22;1760031;81;20950;-65
2021/06/07 07:00:50;;;;;;;4.60;2.60;;;;;;;18.87;61.80;98113.77;1757470;81;21050;-62
2021/06/07 07:03:19;;;;;;;5.20;2.70;;;;;;;18.85;62.41;98122.82;1762324;80;20919;-62
2021/06/07 07:05:47;;;;;;;6.60;2.98;;;;;;;18.86;62.26;98121.14;1785734;80;20919;-64
2021/06/07 07:08:14;;;;;;;6.40;2.77;;;;;;;18.92;61.90;98122.48;1785197;80;21087;-63
2021/06/07 07:10:45;;;;;;;3.37;2.50;;;;;;;18.97;62.22;98116.83;1779523;80;21503;-64
2021/06/07 07:13:12;;;;;;;4.30;2.77;;;;;;;19.07;62.93;98117.72;1779057;80;21538;-61
2021/06/07 07:15:40;;;;;;;5.22;2.80;;;;;;;19.15;61.86;98121.42;1779147;80;21121;-61
2021/06/07 07:18:08;;;;;;;6.15;2.67;;;;;;;19.21;62.40;98117.91;1766767;79;20987;-62
2021/06/07 07:20:37;;;;;;;5.10;2.77;;;;;;;19.31;62.61;98122.88;1749911;80;21117;-64
2021/06/07 07:23:05;;;;;;;4.12;2.62;;;;;;;19.42;62.07;98124.00;1801308;78;20912;-64
2021/06/07 07:25:33;;;;;;;4.95;3.10;;;;;;;19.54;61.00;98123.95;1807350;77;20932;-61
2021/06/07 07:28:00;;;;;;;6.78;2.60;;;;;;;19.60;61.28;98125.28;1800805;78;20927;-63
2021/06/07 07:30:27;;;;;;;6.22;2.80;;;;;;;19.69;60.87;98120.48;1792259;79;20952;-62
2021/06/07 07:32:55;;;;;;;7.53;2.60;;;;;;;19.80;61.29;98127.03;1814438;78;21264;-64
2021/06/07 07:35:23;;;;;;;4.30;2.40;;;;;;;19.91;60.06;98130.81;1824340;78;20908;-63
2021/06/07 07:37:50;;;;;;;8.70;2.35;;;;;;;19.99;59.56;98123.08;1822054;78;21505;-65
2021/06/07 07:40:19;;;;;;;3.85;2.22;;;;;;;20.09;59.26;98123.91;1805842;77;21042;-67
2021/06/07 07:42:46;;;;;;;3.85;1.95;;;;;;;20.19;58.35;98120.69;1819098;78;20975;-65
2021/06/07 07:45:13;;;;;;;3.22;2.08;;;;;;;20.32;57.29;98122.80;1790675;79;21128;-63
2021/06/07 07:47:40;;;;;;;3.27;2.10;;;;;;;20.43;56.35;98120.56;1790411;80;20931;-64
2021/06/07 07:50:11;;;;;;;4.25;2.00;;;;;;;20.55;55.98;98121.61;1790767;79;22084;-63
2021/06/07 07:52:41;;;;;;;3.27;2.20;;;;;;;20.67;56.08;98117.44;1790636;79;21085;-64
2021/06/07 07:55:12;;;;;;;5.85;2.17;;;;;;;20.71;55.04;98116.94;1790924;79;20916;-63
2021/06/07 07:57:40;;;;;;;4.75;2.30;;;;;;;20.75;55.05;98109.67;1792228;79;21076;-63
2021/06/07 08:00:09;;;;;;;6.20;2.33;;;;;;;20.83;55.19;98105.95;1791328;79;20892;-66
2021/06/07 08:02:38;;;;;;;4.55;2.10;;;;;;;20.92;55.67;98110.06;1749196;81;20937;-66
2021/06/07 08:05:06;;;;;;;4.83;2.30;;;;;;;21.05;55.53;98110.77;1760083;80;20941;-65
2021/06/07 08:07:34;;;;;;;6.08;2.20;;;;;;;21.16;54.01;98106.34;1806173;77;21086;-65
2021/06/07 08:10:01;;;;;;;4.75;2.62;;;;;;;21.25;54.76;98100.12;1782645;79;21126;-62
2021/06/07 08:12:28;;;;;;;6.28;2.33;;;;;;;21.38;54.10;98105.66;1745197;82;21061;-61
2021/06/07 08:14:56;;;;;;;3.52;2.20;;;;;;;21.47;53.57;98106.23;1754203;80;21006;-60
2021/06/07 08:17:23;;;;;;;9.78;2.40;;;;;;;21.56;53.30;98104.08;1776078;80;21529;-63
2021/06/07 08:19:50;;;;;;;4.05;1.98;;;;;;;21.69;52.62;98108.82;1770704;80;20979;-69
2021/06/07 08:22:19;;;;;;;3.52;1.70;;;;;;;21.81;51.83;98108.08;1776702;80;21105;-68
2021/06/07 08:24:45;;;;;;;4.70;2.08;;;;;;;21.93;52.25;98095.48;1776125;79;21018;-65
2021/06/07 08:27:12;;;;;;;11.00;2.40;;;;;;;22.06;51.62;98105.06;1776976;80;20904;-66
2021/06/07 08:29:39;;;;;;;4.40;2.20;;;;;;;22.15;49.21;98100.16;1777155;80;21412;-64
2021/06/07 08:32:07;;;;;;;2.87;1.70;;;;;;;22.21;50.68;98094.02;1770897;80;20860;-64
2021/06/07 08:34:35;;;;;;;5.03;1.70;;;;;;;22.31;50.00;98098.09;1768184;80;21099;-63
2021/06/07 08:37:03;;;;;;;7.22;2.20;;;;;;;22.39;48.89;98099.80;1771960;79;20967;-62
2021/06/07 08:39:30;;;;;;;4.70;1.90;;;;;;;22.45;47.74;98101.05;1750491;81;21102;-65
2021/06/07 08:41:57;;;;;;;5.70;1.90;;;;;;;22.44;47.76;98099.50;1759307;81;20991;-65
2021/06/07 08:44:25;;;;;;;7.67;2.05;;;;;;;22.46;47.62;98102.65;1780089;80;21608;-63
2021/06/07 08:46:51;;;;;;;4.17;1.70;;;;;;;22.54;47.62;98098.86;1783786;79;21039;-63
2021/06/07 08:49:18;;;;;;;3.58;2.08;;;;;;;22.68;47.51;98101.84;1783471;80;21014;-63
2021/06/07 08:51:45;;;;;;;5.47;1.75;;;;;;;22.82;46.50;98102.06;1783709;80;20955;-63
2021/06/07 08:54:12;;;;;;;4.92;1.80;;;;;;;23.00;46.59;98109.96;1781617;80;21060;-66
2021/06/07 08:56:40;;;;;;;5.40;1.85;;;;;;;23.12;45.25;98099.39;1753550;80;21447;-62
2021/06/07 08:59:07;;;;;;;4.55;2.05;;;;;;;23.23;45.41;98104.98;1745499;81;21128;-63
2021/06/07 09:01:34;;;;;;;5.67;1.80;;;;;;;23.32;46.08;98096.72;1753766;79;20971;-67
2021/06/07 09:04:16;;;;;;;10.75;2.17;;;;;;;23.38;45.16;98103.48;1769428;80;20964;-65
2021/06/07 09:06:47;;;;;;;6.80;2.15;;;;;;;23.39;45.49;98098.81;1773806;80;20891;-68
2021/06/07 09:09:17;;;;;;;5.95;1.95;;;;;;;23.32;45.39;98095.36;1769601;80;21495;-66
2021/06/07 09:12:04;;;;;;;2.65;1.80;;;;;;;23.22;44.88;98100.12;1767629;80;21067;-64
2021/06/07 09:14:40;;;;;;;4.85;1.98;;;;;;;23.18;45.11;98093.01;1768475;80;20967;-65
2021/06/07 09:17:19;;;;;;;5.87;2.00;;;;;;;23.25;46.25;98091.77;1767698;80;20848;-67
2021/06/07 09:19:47;;;;;;;3.40;1.60;;;;;;;23.50;45.67;98090.16;1770066;80;21449;-68
2021/06/07 09:22:29;;;;;;;3.15;1.87;;;;;;;23.68;44.91;98080.20;1771111;80;20948;-64
2021/06/07 09:25:11;;;;;;;6.03;1.77;;;;;;;23.69;44.29;98079.06;1772205;80;21132;-65
2021/06/07 09:27:39;;;;;;;5.12;1.85;;;;;;;23.53;43.50;98082.59;1770842;80;21470;-63
2021/06/07 09:30:36;;;;;;;3.17;1.72;;;;;;;23.32;44.66;98083.06;1764214;79;20920;-66
2021/06/07 09:33:21;;;;;;;;;;;;;;;23.17;45.32;98087.35;1770279;80;21581;-65
2021/06/07 09:36:14;;;;;;;4.35;2.15;;;;;;;23.07;45.27;98077.85;1771380;80;20077;-65
2021/06/07 09:39:09;;;;;;;4.37;1.72;;;;;;;23.12;46.07;98078.91;1758452;80;21138;-63
2021/06/07 09:42:03;;;;;;;4.97;1.70;;;;;;;23.14;44.29;98085.58;1754530;81;21043;-63
2021/06/07 09:44:46;;;;;;;7.80;2.30;;;;;;;23.00;44.67;98081.85;1767223;80;21115;-60
2021/06/07 09:47:27;;;;;;;5.67;2.25;;;;;;;23.07;45.58;98085.48;1767792;80;20944;-66
2021/06/07 09:50:10;;;;;;;10.30;2.55;;;;;;;23.35;45.00;98080.98;1766594;80;21024;-66
2021/06/07 09:52:44;;;;;;;3.10;2.17;;;;;;;23.66;44.95;98079.80;1761695;80;21851;-61
2021/06/07 09:55:21;;;;;;;2.65;1.70;;;;;;;23.93;44.52;98075.78;1768217;81;21011;-61
2021/06/07 09:58:08;;;;;;;6.30;2.10;;;;;;;24.15;43.85;98070.77;1770987;81;21427;-60
2021/06/07 10:00:48;;;;;;;8.77;1.93;;;;;;;24.16;43.93;98080.56;1770475;81;21102;-63
2021/06/07 10:03:31;;;;;;;7.30;1.95;;;;;;;24.07;44.05;98084.16;1771246;81;21064;-62
2021/06/07 10:06:20;;;;;;;6.95;2.00;;;;;;;23.99;43.21;98083.88;1741671;82;21149;-63
2021/06/07 10:08:59;;;;;;;3.27;1.80;;;;;;;23.79;44.31;98086.00;1747133;81;21114;-64
2021/06/07 10:11:30;;;;;;;4.65;2.02;;;;;;;23.60;43.99;98083.44;1742136;82;21569;-64
2021/06/07 10:14:21;;;;;;;4.72;2.33;;;;;;;23.38;44.21;98088.45;1741978;82;21102;-64
2021/06/07 10:17:02;;;;;;;2.33;2.08;;;;;;;23.21;44.61;98082.14;1740084;82;20924;-64
2021/06/07 10:19:41;;;;;;;5.37;2.10;;;;;;;23.02;43.95;98088.52;1743405;82;21051;-66
2021/06/07 10:22:05;;;;;;;4.30;2.12;;;;;;;22.85;44.87;98075.97;1742532;82;21472;-66
2021/06/07 10:24:32;;;;;;;4.67;1.95;;;;;;;22.79;44.88;98071.42;1743463;82;20948;-65
2021/06/07 10:26:59;;;;;;;8.95;2.20;;;;;;;22.97;47.02;98071.08;1743579;81;20996;-64
2021/06/07 10:29:34;;;;;;;6.92;1.98;;;;;;;23.14;46.05;98071.13;1755330;81;20932;-64
2021/06/07 10:32:10;;;;;;;4.17;1.87;;;;;;;23.18;45.27;98069.78;1782823;80;21736;-63
2021/06/07 10:34:52;;;;;;;5.87;1.90;;;;;;;23.05;44.04;98065.94;1787565;80;21075;-64
2021/06/07 10:37:20;;;;;;;6.15;2.25;;;;;;;22.93;45.40;98065.37;1791456;80;21225;-66
2021/06/07 10:39:47;;;;;;;4.08;2.00;;;;;;;22.88;45.42;98061.02;1792772;80;20918;-66
2021/06/07 10:42:18;;;;;;;2.33;1.60;;;;;;;22.80;45.47;98062.66;1791124;80;21485;-61
2021/06/07 10:44:48;;;;;;;3.87;1.80;;;;;;;22.74;46.06;98060.81;1792951;80;21190;-64
2021/06/07 10:47:26;;;;;;;6.03;2.02;;;;;;;22.76;45.38;98061.22;1775047;80;21401;-65
2021/06/07 10:50:07;;;;;;;7.25;2.50;;;;;;;22.89;45.05;98058.47;1773969;81;20967;-62
2021/06/07 10:52:51;;;;;;;3.50;1.75;;;;;;;23.13;44.04;98055.30;1754078;81;20875;-62
2021/06/07 10:55:23;;;;;;;2.75;1.75;;;;;;;23.32;43.52;98053.60;1833329;77;20971;-63
2021/06/07 10:58:00;;;;;;;5.35;1.80;;;;;;;23.39;43.18;98058.58;1846907;77;21845;-64
2021/06/07 11:00:45;;;;;;;3.80;1.87;;;;;;;23.31;41.89;98048.70;1852897;77;20945;-63
2021/06/07 11:03:24;;;;;;;2.70;1.67;;;;;;;23.34;42.33;98041.72;1845032;77;21450;-62
2021/06/07 11:06:00;;;;;;;1.82;1.50;;;;;;;23.45;43.34;98040.71;1844117;77;20868;-64
2021/06/07 11:08:33;;;;;;;3.27;1.60;;;;;;;23.54;42.22;98044.51;1843918;77;20860;-64
2021/06/07 11:11:04;;;;;;;4.08;1.70;;;;;;;23.55;41.73;98050.19;1813688;78;21395;-64
2021/06/07 11:13:56;;;;;;;5.67;1.62;;;;;;;23.46;42.78;98045.60;1826003;77;20963;-63
2021/06/07 11:16:30;;;;;;;4.70;1.57;;;;;;;23.41;42.46;98043.20;1823440;77;21115;-64
2021/06/07 11:19:00;;;;;;;4.05;1.60;;;;;;;23.39;42.53;98033.22;1823644;77;21002;-64
2021/06/07 11:21:36;;;;;;;4.58;1.57;;;;;;;23.39;41.86;98035.95;1829057;77;21488;-63
2021/06/07 11:24:25;;;;;;;4.60;1.50;;;;;;;23.42;41.43;98033.82;1843786;77;21256;-63
2021/06/07 11:26:52;;;;;;;2.52;1.85;;;;;;;23.42;42.32;98016.05;1844310;77;20967;-63
2021/06/07 11:29:19;;;;;;;4.05;2.00;;;;;;;23.58;42.91;98026.98;1844703;77;20848;-63
2021/06/07 11:31:58;;;;;;;5.25;1.87;;;;;;;23.83;42.50;98029.38;1817719;77;20931;-63
2021/06/07 11:34:48;;;;;;;4.15;1.60;;;;;;;24.02;42.27;98021.58;1836239;77;20899;-63
2021/06/07 11:37:35;;;;;;;7.20;2.10;;;;;;;24.12;43.51;98025.00;1844734;77;21108;-61
2021/06/07 11:40:05;;;;;;;4.53;2.17;;;;;;;24.12;43.72;98025.00;1837036;77;20936;-62
2021/06/07 11:42:32;;;;;;;4.33;1.90;;;;;;;24.07;44.03;98027.31;1820025;77;20872;-69
2021/06/07 11:45:08;;;;;;;6.92;2.17;;;;;;;24.01;44.08;98021.94;1816715;77;20884;-66
2021/06/07 11:47:48;;;;;;;4.97;2.10;;;;;;;23.92;44.39;98015.41;1825172;77;21458;-64
2021/06/07 11:50:25;;;;;;;3.92;2.08;;;;;;;23.85;44.54;98008.52;1778847;79;21120;-63
2021/06/07 11:52:51;;;;;;;3.72;2.20;;;;;;;23.87;45.21;98000.71;1769444;80;21316;-62
2021/06/07 11:55:33;;;;;;;6.92;2.10;;;;;;;23.90;44.91;97994.50;1780151;80;20935;-63
2021/06/07 11:58:21;;;;;;;2.87;1.80;;;;;;;23.87;45.10;97997.98;1762865;80;20903;-65
2021/06/07 12:00:54;;;;;;;6.10;2.20;;;;;;;24.05;44.75;97996.17;1781733;80;20907;-63
2021/06/07 12:03:27;;;;;;;8.20;2.17;;;;;;;24.49;45.03;97995.56;1790357;79;21109;-63
2021/06/07 12:05:53;;;;;;;2.95;1.92;;;;;;;24.76;44.70;97985.75;1771301;80;20884;-65
2021/06/07 12:08:23;;;;;;;5.25;2.20;;;;;;;24.78;42.41;97983.44;1780530;80;21542;-64
2021/06/07 12:10:58;;;;;;;6.83;2.22;;;;;;;24.56;43.31;97990.74;1819393;78;21033;-62
2021/06/07 12:13:31;;;;;;;6.05;2.17;;;;;;;24.25;43.19;97980.34;1759154;80;20871;-62
2021/06/07 12:16:08;;;;;;;3.90;2.15;;;;;;;24.11;43.68;97986.50;1758206;80;21812;-62
2021/06/07 12:18:47;;;;;;;5.22;1.80;;;;;;;24.22;44.09;97972.89;1825782;78;20916;-65
2021/06/07 12:21:28;;;;;;;5.95;1.67;;;;;;;24.52;43.24;97975.45;1827582;78;20971;-63
2021/06/07 12:24:09;;;;;;;6.25;1.77;;;;;;;24.60;41.20;97974.31;1778517;80;20922;-63
2021/06/07 12:29:38;;;;;;;4.72;1.75;;;;;;;24.15;40.33;97979.09;1765069;80;21774;-63
2021/06/07 12:32:23;;;;;;;5.70;1.62;;;;;;;23.80;40.81;97985.03;1818211;78;20880;-64
2021/06/07 12:35:15;;;;;;;6.33;1.67;;;;;;;23.56;41.89;97984.77;1821848;77;20967;-63
2021/06/07 12:37:49;;;;;;;2.17;1.50;;;;;;;23.44;42.42;97990.50;1767420;80;20982;-64
2021/06/07 12:40:41;;;;;;;3.08;1.40;;;;;;;23.35;41.42;97987.28;1758800;80;20935;-62
2021/06/07 12:43:16;;;;;;;4.22;1.70;;;;;;;23.37;41.31;97989.05;1803683;78;20971;-65
2021/06/07 12:46:00;;;;;;;2.45;1.72;;;;;;;23.46;42.60;97981.37;1805122;78;21435;-65
2021/06/07 12:48:35;;;;;;;2.40;1.50;;;;;;;23.51;41.51;97982.38;1837030;78;20841;-65
2021/06/07 12:51:07;;;;;;;6.87;1.82;;;;;;;23.45;42.04;97980.58;1838913;78;20920;-63
2021/06/07 12:53:48;;;;;;;4.45;1.75;;;;;;;23.39;42.50;97980.69;1838678;78;20912;-64
2021/06/07 12:56:23;;;;;;;11.20;2.27;;;;;;;23.39;42.68;97979.93;1825696;78;21663;-62
2021/06/07 12:58:52;;;;;;;4.55;2.00;;;;;;;23.41;43.58;97974.88;1751208;80;21549;-62
2021/06/07 13:01:20;;;;;;;4.08;1.62;;;;;;;23.49;41.11;97971.83;1750845;80;21581;-65
2021/06/07 13:03:55;;;;;;;3.55;1.90;;;;;;;23.55;41.04;97967.58;1748328;81;21042;-63
2021/06/07 13:06:22;;;;;;;6.90;1.35;;;;;;;23.61;40.70;97970.77;1746141;82;21117;-62
2021/06/07 13:08:57;;;;;;;3.37;1.55;;;;;;;23.65;40.57;97968.84;1748233;82;21241;-66
2021/06/07 13:11:38;;;;;;;2.42;1.42;;;;;;;23.67;40.61;97981.59;1789278;79;21510;-64
2021/06/07 13:14:23;;;;;;;4.65;1.67;;;;;;;23.79;41.34;97988.91;1788505;80;21082;-63
2021/06/07 13:16:51;;;;;;;4.92;1.60;;;;;;;24.04;41.90;97986.41;1747014;82;21336;-67
2021/06/07 13:19:30;;;;;;;3.10;1.72;;;;;;;23.99;42.53;97997.70;1726213;82;20899;-63
2021/06/07 13:21:59;;;;;;;3.27;2.00;;;;;;;23.74;42.69;98015.23;1798953;77;21074;-61
2021/06/07 13:24:32;;;;;;;5.87;1.90;;;;;;;23.37;43.88;98024.58;1789574;80;20872;-61
2021/06/07 13:27:19;;;;;;;10.88;2.30;;;;;;;23.07;45.25;98028.11;1818014;78;21335;-61
2021/06/07 13:29:56;;;;;;;5.72;1.90;;;;;;;22.80;47.87;98021.09;1802383;78;20919;-60
2021/06/07 13:32:32;;;;;;;4.65;1.90;;;;;;;22.51;49.97;98020.47;1783295;79;20929;-60
2021/06/07 13:35:07;;;;;;;7.95;2.00;;;;;;;22.26;50.55;98019.27;1750752;81;21128;-63
2021/06/07 13:37:47;;;;;;;4.50;2.08;;;;;;;22.04;51.76;98011.91;1821970;78;20915;-63
2021/06/07 13:40:32;;;;;;;3.60;2.02;;;;;;;21.88;52.34;98013.98;1807391;78;20986;-63
2021/06/07 13:43:15;;;;;;;5.65;2.12;;;;;;;21.73;53.23;98009.61;1821923;78;20979;-61
